createdAt,value
2018-02-22T00:02:15.992Z,14.77
2018-02-22T00:04:42.924Z,16.67
2018-02-22T00:07:09.916Z,15.10
2018-02-22T00:09:36.079Z,15.57
2018-02-22T00:12:02.288Z,13.50
2018-02-22T00:14:28.487Z,14.70
2018-02-22T00:16:54.775Z,15.80
2018-02-22T00:19:21.727Z,15.73
2018-02-22T00:21:48.671Z,15.73
2018-02-22T00:24:15.597Z,15.97
2018-02-22T00:26:41.775Z,17.00
2018-02-22T00:29:08.039Z,15.40
2018-02-22T00:31:34.217Z,17.30
2018-02-22T00:34:00.412Z,16.93
2018-02-22T00:36:27.337Z,16.40
2018-02-22T00:38:53.544Z,15.23
2018-02-22T00:41:19.721Z,15.60
2018-02-22T00:43:46.671Z,15.60
2018-02-22T00:46:12.845Z,18.03
2018-02-22T00:48:39.078Z,17.03
2018-02-22T00:51:05.275Z,16.03
2018-02-22T00:53:31.474Z,17.40
2018-02-22T00:55:57.687Z,16.57
2018-02-22T00:58:24.604Z,15.97
2018-02-22T01:00:50.815Z,16.40
2018-02-22T01:03:17.144Z,16.97
2018-02-22T01:05:43.329Z,17.67
2018-02-22T01:08:10.271Z,17.90
2018-02-22T01:10:36.527Z,16.40
2018-02-22T01:13:02.726Z,16.60
2018-02-22T01:15:28.925Z,17.20
2018-02-22T01:17:55.109Z,18.73
2018-02-22T01:20:21.327Z,17.00
2018-02-22T01:22:47.533Z,18.60
2018-02-22T01:25:13.733Z,18.37
2018-02-22T01:27:39.926Z,18.07
2018-02-22T01:30:06.142Z,17.67
2018-02-22T01:32:32.424Z,18.03
2018-02-22T01:34:58.612Z,16.73
2018-02-22T01:37:31.802Z,17.53
2018-02-22T01:39:57.995Z,17.37
2018-02-22T01:42:24.187Z,17.83
2018-02-22T01:44:50.436Z,17.10
2018-02-22T01:47:17.372Z,17.20
2018-02-22T01:49:44.342Z,17.40
2018-02-22T01:52:10.590Z,17.30
2018-02-22T01:54:36.814Z,16.53
2018-02-22T01:57:03.029Z,17.37
2018-02-22T01:59:29.257Z,16.70
2018-02-22T02:01:55.460Z,16.63
2018-02-22T02:04:21.740Z,16.90
2018-02-22T02:06:47.945Z,17.40
2018-02-22T02:09:14.119Z,17.13
2018-02-22T02:11:40.320Z,17.90
2018-02-22T02:14:07.254Z,17.60
2018-02-22T02:16:33.431Z,17.70
2018-02-22T02:19:00.382Z,18.00
2018-02-22T02:21:26.573Z,17.37
2018-02-22T02:23:52.811Z,17.27
2018-02-22T02:26:19.035Z,19.10
2018-02-22T02:28:45.241Z,18.00
2018-02-22T02:31:11.465Z,17.73
2018-02-22T02:33:37.737Z,18.00
2018-02-22T02:36:04.694Z,17.40
2018-02-22T02:38:31.612Z,18.87
2018-02-22T02:40:58.581Z,18.40
2018-02-22T02:43:24.754Z,18.00
2018-02-22T02:45:50.983Z,17.73
2018-02-22T02:48:17.188Z,19.90
2018-02-22T02:50:43.446Z,17.70
2018-02-22T02:53:09.616Z,19.40
2018-02-22T02:55:35.812Z,18.03
2018-02-22T02:58:02.031Z,18.83
2018-02-22T03:00:28.237Z,21.20
2018-02-22T03:02:54.560Z,20.87
2018-02-22T03:05:20.766Z,18.00
2018-02-22T03:07:46.978Z,20.00
2018-02-22T03:10:13.892Z,19.53
2018-02-22T03:12:40.182Z,19.53
2018-02-22T03:15:06.451Z,20.20
2018-02-22T03:17:32.700Z,19.77
2018-02-22T03:19:58.906Z,19.03
2018-02-22T03:22:25.131Z,20.00
2018-02-22T03:24:51.359Z,21.83
2018-02-22T03:27:18.554Z,20.33
2018-02-22T03:29:44.927Z,18.63
2018-02-22T03:32:11.301Z,19.10
2018-02-22T03:34:37.698Z,20.00
2018-02-22T03:37:04.054Z,21.90
2018-02-22T03:39:30.509Z,22.13
2018-02-22T03:41:56.968Z,20.27
2018-02-22T03:44:24.116Z,21.70
2018-02-22T03:46:50.436Z,20.93
2018-02-22T03:49:16.901Z,21.30
2018-02-22T03:51:43.231Z,21.90
2018-02-22T03:54:09.732Z,22.03
2018-02-22T03:56:36.138Z,21.47
2018-02-22T03:59:02.579Z,21.93
2018-02-22T04:01:28.992Z,20.03
2018-02-22T04:03:55.409Z,22.00
2018-02-22T04:06:21.782Z,21.20
2018-02-22T04:08:48.069Z,21.37
2018-02-22T04:11:14.521Z,23.30
2018-02-22T04:13:41.029Z,22.20
2018-02-22T04:16:07.470Z,23.80
2018-02-22T04:18:33.886Z,22.93
2018-02-22T04:21:00.357Z,23.37
2018-02-22T04:23:26.831Z,21.53
2018-02-22T04:25:53.970Z,23.63
2018-02-22T04:28:20.362Z,21.90
2018-02-22T04:30:46.646Z,23.47
2018-02-22T04:33:13.082Z,23.13
2018-02-22T04:35:39.491Z,22.03
2018-02-22T04:38:05.903Z,23.30
2018-02-22T04:40:32.362Z,23.90
2018-02-22T04:42:58.747Z,23.00
2018-02-22T04:45:25.835Z,23.83
2018-02-22T04:47:52.890Z,24.10
2018-02-22T04:50:19.998Z,22.17
2018-02-22T04:52:46.407Z,24.40
2018-02-22T04:55:12.872Z,24.50
2018-02-22T04:57:39.268Z,23.47
2018-02-22T05:00:05.706Z,23.80
2018-02-22T05:02:32.066Z,23.60
2018-02-22T05:04:58.515Z,24.80
2018-02-22T05:07:24.869Z,25.07
2018-02-22T05:09:52.006Z,24.23
2018-02-22T05:12:19.301Z,24.67
2018-02-22T05:14:45.652Z,26.40
2018-02-22T05:17:12.054Z,23.63
2018-02-22T05:19:38.428Z,23.93
2018-02-22T05:22:04.865Z,23.97
2018-02-22T05:24:31.334Z,25.17
2018-02-22T05:26:57.808Z,24.27
2018-02-22T05:29:24.231Z,27.10
2018-02-22T05:31:50.655Z,24.70
2018-02-22T05:34:17.052Z,24.20
2018-02-22T05:36:43.463Z,25.30
2018-02-22T05:39:09.901Z,23.10
2018-02-22T05:41:36.998Z,26.70
2018-02-22T05:44:10.522Z,26.20
2018-02-22T05:46:36.880Z,26.30
2018-02-22T05:49:03.289Z,26.90
2018-02-22T05:51:29.751Z,27.00
2018-02-22T05:53:56.841Z,25.47
2018-02-22T05:56:23.201Z,25.90
2018-02-22T05:58:49.548Z,28.97
2018-02-22T06:01:16.671Z,28.60
2018-02-22T06:03:43.047Z,27.70
2018-02-22T06:06:09.389Z,27.17
2018-02-22T06:08:35.741Z,26.07
2018-02-22T06:11:02.129Z,27.10
2018-02-22T06:13:28.556Z,27.73
2018-02-22T06:15:54.893Z,26.73
2018-02-22T06:18:21.399Z,29.03
2018-02-22T06:20:47.720Z,26.50
2018-02-22T06:23:14.152Z,27.17
2018-02-22T06:25:41.246Z,29.10
2018-02-22T06:28:07.652Z,27.93
2018-02-22T06:30:34.830Z,28.87
2018-02-22T06:33:01.273Z,29.60
2018-02-22T06:35:27.674Z,27.93
2018-02-22T06:37:54.000Z,30.27
2018-02-22T06:40:20.389Z,30.20
2018-02-22T06:42:46.813Z,28.40
2018-02-22T06:45:13.335Z,30.47
2018-02-22T06:47:39.743Z,30.93
2018-02-22T06:50:06.241Z,30.30
2018-02-22T06:52:32.657Z,29.93
2018-02-22T06:54:59.053Z,31.17
2018-02-22T06:57:25.462Z,29.13
2018-02-22T06:59:52.613Z,30.90
2018-02-22T07:02:19.006Z,30.03
2018-02-22T07:04:45.508Z,28.90
2018-02-22T07:07:11.895Z,28.80
2018-02-22T07:09:38.279Z,28.87
2018-02-22T07:12:04.660Z,30.07
2018-02-22T07:14:31.077Z,31.10
2018-02-22T07:16:58.060Z,29.30
2018-02-22T07:19:24.568Z,28.03
2018-02-22T07:21:51.129Z,27.37
2018-02-22T07:24:17.557Z,27.10
2018-02-22T07:26:43.970Z,29.87
2018-02-22T07:29:11.175Z,28.13
2018-02-22T07:31:37.592Z,29.27
2018-02-22T07:34:04.070Z,28.50
2018-02-22T07:36:31.341Z,27.97
2018-02-22T07:38:57.704Z,27.87
2018-02-22T07:41:24.180Z,26.70
2018-02-22T07:43:50.544Z,28.17
2018-02-22T07:46:16.971Z,28.77
2018-02-22T07:48:44.173Z,28.63
2018-02-22T07:51:10.577Z,28.73
2018-02-22T07:53:37.062Z,28.20
2018-02-22T07:56:04.242Z,26.77
2018-02-22T07:58:30.624Z,28.83
2018-02-22T08:00:57.099Z,26.60
2018-02-22T08:03:23.514Z,25.97
2018-02-22T08:05:50.552Z,26.30
2018-02-22T08:08:16.904Z,25.03
2018-02-22T08:10:43.254Z,25.00
2018-02-22T08:13:09.830Z,25.63
2018-02-22T08:15:36.296Z,25.23
2018-02-22T08:18:02.685Z,23.57
2018-02-22T08:20:28.952Z,23.87
2018-02-22T08:22:55.271Z,26.90
2018-02-22T08:25:21.681Z,27.33
2018-02-22T08:27:48.044Z,25.63
2018-02-22T08:30:15.203Z,27.73
2018-02-22T08:32:41.654Z,26.97
2018-02-22T08:35:08.137Z,26.60
2018-02-22T08:37:34.568Z,27.93
2018-02-22T08:40:00.964Z,28.10
2018-02-22T08:42:27.408Z,27.13
2018-02-22T08:44:53.860Z,26.57
2018-02-22T08:47:20.256Z,25.53
2018-02-22T08:49:46.654Z,26.57
2018-02-22T08:52:13.087Z,26.27
2018-02-22T08:54:40.173Z,25.40
2018-02-22T08:57:06.446Z,25.63
2018-02-22T08:59:32.808Z,23.97
2018-02-22T09:01:59.221Z,23.17
2018-02-22T09:04:26.344Z,23.40
2018-02-22T09:06:53.544Z,23.40
2018-02-22T09:09:19.883Z,23.27
2018-02-22T09:11:46.254Z,23.07
2018-02-22T09:14:12.677Z,21.93
2018-02-22T09:16:38.946Z,22.43
2018-02-22T09:19:05.322Z,22.60
2018-02-22T09:21:32.440Z,22.90
2018-02-22T09:23:59.573Z,22.27
2018-02-22T09:26:26.932Z,21.40
2018-02-22T09:28:53.374Z,20.40
2018-02-22T09:31:20.524Z,20.50
2018-02-22T09:33:46.943Z,21.70
2018-02-22T09:36:14.087Z,21.57
2018-02-22T09:38:41.137Z,21.93
2018-02-22T09:41:07.427Z,22.07
2018-02-22T09:43:34.598Z,22.20
2018-02-22T09:46:00.945Z,22.93
2018-02-22T09:48:27.352Z,22.23
2018-02-22T09:50:53.799Z,20.53
2018-02-22T09:53:20.906Z,19.80
2018-02-22T09:55:47.292Z,18.47
2018-02-22T09:58:13.670Z,17.83
2018-02-22T10:00:40.050Z,17.63
2018-02-22T10:03:06.389Z,17.73
2018-02-22T10:05:33.516Z,16.90
2018-02-22T10:07:59.933Z,17.23
2018-02-22T10:10:26.299Z,16.20
2018-02-22T10:12:53.508Z,13.70
2018-02-22T10:15:20.516Z,12.73
2018-02-22T10:17:46.846Z,12.80
2018-02-22T10:20:13.158Z,14.07
2018-02-22T10:22:39.487Z,13.60
2018-02-22T10:25:05.857Z,12.20
2018-02-22T10:27:32.357Z,13.07
2018-02-22T10:29:58.697Z,15.20
2018-02-22T10:32:25.042Z,14.37
2018-02-22T10:34:51.313Z,16.30
2018-02-22T10:37:17.630Z,15.00
2018-02-22T10:39:43.993Z,15.47
2018-02-22T10:42:10.354Z,14.00
2018-02-22T10:44:36.745Z,14.40
2018-02-22T10:47:03.867Z,15.50
2018-02-22T10:49:30.139Z,15.10
2018-02-22T10:51:56.477Z,14.37
2018-02-22T10:54:22.917Z,14.40
2018-02-22T10:56:49.388Z,14.20
2018-02-22T10:59:15.805Z,14.30
2018-02-22T11:01:48.272Z,14.13
2018-02-22T11:04:14.646Z,13.37
2018-02-22T11:06:41.855Z,13.30
2018-02-22T11:09:08.230Z,13.00
2018-02-22T11:11:34.589Z,12.03
2018-02-22T11:14:00.985Z,12.43
2018-02-22T11:16:27.367Z,12.13
2018-02-22T11:18:53.729Z,12.00
2018-02-22T11:21:20.171Z,12.20
2018-02-22T11:23:46.585Z,13.23
2018-02-22T11:26:12.986Z,13.23
2018-02-22T11:28:39.370Z,13.00
2018-02-22T11:31:06.673Z,12.80
2018-02-22T11:33:34.365Z,12.37
2018-02-22T11:36:00.686Z,11.90
2018-02-22T11:38:27.099Z,10.40
2018-02-22T11:40:53.436Z,11.73
2018-02-22T11:43:19.731Z,11.03
2018-02-22T11:45:46.118Z,12.13
2018-02-22T11:48:12.532Z,12.47
2018-02-22T11:50:39.567Z,12.57
2018-02-22T11:53:06.027Z,10.40
2018-02-22T11:55:32.488Z,10.90
2018-02-22T11:57:59.695Z,9.90
2018-02-22T12:00:26.078Z,9.97
2018-02-22T12:02:53.252Z,10.40
2018-02-22T12:05:19.560Z,10.13
2018-02-22T12:07:45.934Z,11.07
2018-02-22T12:10:12.371Z,10.27
2018-02-22T12:12:39.624Z,9.40
2018-02-22T12:15:05.939Z,9.30
2018-02-22T12:17:32.342Z,9.00
2018-02-22T12:20:00.313Z,9.60
2018-02-22T12:22:26.692Z,8.83
2018-02-22T12:24:53.051Z,9.37
2018-02-22T12:27:19.430Z,9.80
2018-02-22T12:29:45.829Z,8.73
2018-02-22T12:32:12.193Z,9.47
2018-02-22T12:34:39.243Z,9.20
2018-02-22T12:37:05.652Z,9.40
2018-02-22T12:39:32.888Z,9.57
2018-02-22T12:41:59.974Z,9.10
2018-02-22T12:44:26.509Z,9.50
2018-02-22T12:46:52.752Z,11.17
2018-02-22T12:49:19.895Z,9.97
2018-02-22T12:51:46.310Z,9.90
2018-02-22T12:54:12.701Z,9.73
2018-02-22T12:56:39.040Z,10.50
2018-02-22T12:59:05.424Z,10.43
2018-02-22T13:01:31.844Z,9.47
2018-02-22T13:03:58.217Z,9.60
2018-02-22T13:06:24.551Z,10.03
2018-02-22T13:08:51.747Z,10.53
2018-02-22T13:11:18.123Z,8.90
2018-02-22T13:13:45.273Z,9.20
2018-02-22T13:16:12.452Z,9.20
2018-02-22T13:18:38.762Z,9.17
2018-02-22T13:21:05.120Z,8.50
2018-02-22T13:23:31.498Z,9.10
2018-02-22T13:25:57.994Z,8.30
2018-02-22T13:28:24.380Z,8.63
2018-02-22T13:30:51.543Z,8.83
2018-02-22T13:33:30.174Z,8.73
2018-02-22T13:35:56.546Z,9.33
2018-02-22T13:38:35.157Z,9.40
2018-02-22T13:41:01.632Z,8.90
2018-02-22T13:43:28.086Z,8.77
2018-02-22T13:45:54.447Z,9.47
2018-02-22T13:48:20.885Z,9.07
2018-02-22T13:50:59.553Z,10.07
2018-02-22T13:53:26.560Z,9.03
2018-02-22T13:55:52.949Z,8.67
2018-02-22T13:58:19.360Z,8.10
2018-02-22T14:00:58.778Z,8.40
2018-02-22T14:03:25.157Z,8.07
2018-02-22T14:05:51.566Z,6.90
2018-02-22T14:08:31.067Z,7.50
2018-02-22T14:10:57.465Z,7.53
2018-02-22T14:13:23.871Z,7.50
2018-02-22T14:15:51.040Z,7.57
2018-02-22T14:18:17.576Z,8.23
2018-02-22T14:20:43.881Z,8.40
2018-02-22T14:23:10.960Z,8.23
2018-02-22T14:25:37.322Z,8.73
2018-02-22T14:28:03.742Z,9.07
2018-02-22T14:30:30.091Z,10.13
2018-02-22T14:32:56.465Z,9.33
2018-02-22T14:35:22.818Z,9.43
2018-02-22T14:37:49.904Z,9.27
2018-02-22T14:40:16.989Z,8.50
2018-02-22T14:42:43.346Z,9.60
2018-02-22T14:45:09.738Z,9.37
2018-02-22T14:47:36.930Z,8.70
2018-02-22T14:50:03.180Z,8.70
2018-02-22T14:52:29.604Z,9.10
2018-02-22T14:54:56.633Z,9.80
2018-02-22T14:57:23.667Z,8.47
2018-02-22T14:59:50.755Z,9.07
2018-02-22T15:02:23.057Z,9.00
2018-02-22T15:04:49.417Z,9.23
2018-02-22T15:07:15.888Z,9.23
2018-02-22T15:09:43.030Z,10.47
2018-02-22T15:12:09.408Z,9.33
2018-02-22T15:14:35.859Z,9.43
2018-02-22T15:17:02.899Z,10.07
2018-02-22T15:19:29.966Z,10.57
2018-02-22T15:21:56.338Z,9.67
2018-02-22T15:24:22.764Z,8.80
2018-02-22T15:26:49.110Z,8.40
2018-02-22T15:29:15.524Z,7.40
2018-02-22T15:31:41.698Z,7.47
2018-02-22T15:34:08.693Z,8.40
2018-02-22T15:36:35.027Z,8.43
2018-02-22T15:39:01.433Z,8.70
2018-02-22T15:41:27.906Z,8.20
2018-02-22T15:43:54.331Z,9.40
2018-02-22T15:46:20.709Z,11.53
2018-02-22T15:48:47.008Z,12.63
2018-02-22T15:51:13.249Z,12.50
2018-02-22T15:53:39.623Z,11.97
2018-02-22T15:56:05.995Z,15.60
2018-02-22T15:58:33.091Z,16.40
2018-02-22T16:00:59.400Z,36.20
2018-02-22T16:03:25.773Z,24.30
2018-02-22T16:05:52.101Z,17.00
2018-02-22T16:08:18.536Z,15.70
2018-02-22T16:10:45.053Z,15.70
2018-02-22T16:13:12.231Z,14.50
2018-02-22T16:15:40.112Z,14.90
2018-02-22T16:18:07.109Z,15.00
2018-02-22T16:20:34.395Z,15.33
2018-02-22T16:23:01.618Z,14.30
2018-02-22T16:25:27.843Z,14.57
2018-02-22T16:27:54.133Z,14.30
2018-02-22T16:30:20.427Z,16.07
2018-02-22T16:32:46.814Z,14.07
2018-02-22T16:35:13.024Z,13.57
2018-02-22T16:37:39.175Z,13.40
2018-02-22T16:40:05.515Z,13.33
2018-02-22T16:42:31.687Z,13.33
2018-02-22T16:44:57.939Z,13.53
2018-02-22T16:47:24.823Z,14.17
2018-02-22T16:49:51.039Z,14.80
2018-02-22T16:52:17.303Z,12.40
2018-02-22T16:54:43.471Z,11.83
2018-02-22T16:57:10.407Z,11.93
2018-02-22T16:59:37.318Z,11.93
2018-02-22T17:02:03.495Z,12.63
2018-02-22T17:04:29.680Z,12.73
2018-02-22T17:06:55.940Z,12.07
2018-02-22T17:09:22.220Z,11.30
2018-02-22T17:11:48.379Z,11.33
2018-02-22T17:14:15.317Z,12.37
2018-02-22T17:16:41.503Z,12.37
2018-02-22T17:19:07.727Z,12.33
2018-02-22T17:21:33.973Z,11.73
2018-02-22T17:24:00.323Z,12.43
2018-02-22T17:26:32.695Z,12.33
2018-02-22T17:29:06.447Z,11.53
2018-02-22T17:31:38.778Z,11.40
2018-02-22T17:34:05.716Z,11.30
2018-02-22T17:36:33.722Z,11.90
2018-02-22T17:42:08.596Z,10.53
2018-02-22T17:44:38.747Z,10.50
2018-02-22T17:47:05.417Z,10.30
2018-02-22T17:49:31.680Z,9.43
2018-02-22T17:51:58.119Z,10.50
2018-02-22T17:54:24.401Z,10.83
2018-02-22T17:56:50.703Z,10.80
2018-02-22T17:59:16.989Z,10.70
2018-02-22T18:01:43.340Z,11.50
2018-02-22T18:04:10.302Z,10.40
2018-02-22T18:06:36.609Z,10.33
2018-02-22T18:09:02.882Z,10.93
2018-02-22T18:11:29.158Z,11.00
2018-02-22T18:13:55.504Z,10.33
2018-02-22T18:16:22.606Z,10.40
2018-02-22T18:18:48.870Z,9.70
2018-02-22T18:21:15.986Z,9.70
2018-02-22T18:23:42.269Z,10.13
2018-02-22T18:26:08.646Z,10.30
2018-02-22T18:28:34.937Z,9.53
2018-02-22T18:31:01.183Z,10.53
2018-02-22T18:33:27.489Z,10.50
2018-02-22T18:35:53.908Z,10.70
2018-02-22T18:38:20.901Z,11.33
2018-02-22T18:40:53.249Z,10.33
2018-02-22T18:43:25.596Z,11.00
2018-02-22T18:45:52.584Z,12.43
2018-02-22T18:48:18.812Z,11.57
2018-02-22T18:50:45.026Z,12.43
2018-02-22T18:53:11.292Z,11.97
2018-02-22T18:55:37.540Z,12.77
2018-02-22T18:58:03.812Z,13.40
2018-02-22T19:00:30.070Z,12.93
2018-02-22T19:02:56.353Z,13.40
2018-02-22T19:05:35.226Z,13.27
2018-02-22T19:08:01.526Z,13.33
2018-02-22T19:10:27.756Z,13.60
2018-02-22T19:12:53.993Z,14.07
2018-02-22T19:15:20.232Z,14.53
2018-02-22T19:17:46.618Z,15.10
2018-02-22T19:20:12.896Z,16.60
2018-02-22T19:22:39.113Z,16.53
2018-02-22T19:25:05.332Z,17.23
2018-02-22T19:27:31.560Z,16.07
2018-02-22T19:29:57.797Z,15.90
2018-02-22T19:32:24.017Z,15.60
2018-02-22T19:34:50.288Z,14.17
2018-02-22T19:37:17.256Z,15.00
2018-02-22T19:39:44.265Z,13.83
2018-02-22T19:42:10.526Z,14.83
2018-02-22T19:44:37.491Z,14.67
2018-02-22T19:47:03.744Z,12.90
2018-02-22T19:49:30.081Z,12.63
2018-02-22T19:51:56.356Z,13.30
2018-02-22T19:54:23.351Z,11.30
2018-02-22T19:56:49.739Z,12.90
2018-02-22T19:59:16.696Z,11.07
2018-02-22T20:01:42.952Z,12.63
2018-02-22T20:04:09.192Z,11.13
2018-02-22T20:06:35.404Z,10.60
2018-02-22T20:09:01.643Z,11.57
2018-02-22T20:11:27.869Z,12.53
2018-02-22T20:14:02.880Z,13.87
2018-02-22T20:16:31.121Z,13.30
2018-02-22T20:18:58.066Z,15.40
2018-02-22T20:21:25.000Z,13.23
2018-02-22T20:23:51.214Z,13.97
2018-02-22T20:26:17.434Z,14.23
2018-02-22T20:28:43.745Z,14.67
2018-02-22T20:31:10.001Z,14.47
2018-02-22T20:33:36.249Z,13.20
2018-02-22T20:36:03.203Z,13.50
2018-02-22T20:38:30.166Z,14.27
2018-02-22T20:40:56.344Z,12.70
2018-02-22T20:43:23.364Z,13.90
2018-02-22T20:45:49.586Z,14.10
2018-02-22T20:48:15.823Z,12.50
2018-02-22T20:50:42.128Z,12.60
2018-02-22T20:53:20.398Z,14.20
2018-02-22T20:55:48.263Z,12.33
2018-02-22T20:58:14.540Z,13.50
2018-02-22T21:00:40.763Z,13.93
2018-02-22T21:03:07.122Z,14.90
2018-02-22T21:05:33.354Z,11.80
2018-02-22T21:07:59.896Z,14.90
2018-02-22T21:10:26.086Z,15.23
2018-02-22T21:12:52.515Z,14.10
2018-02-22T21:15:19.061Z,14.20
2018-02-22T21:17:45.340Z,12.70
2018-02-22T21:20:11.568Z,14.23
2018-02-22T21:22:37.762Z,14.50
2018-02-22T21:25:04.034Z,13.80
2018-02-22T21:27:30.989Z,13.40
2018-02-22T21:29:57.253Z,13.60
2018-02-22T21:32:23.512Z,11.70
2018-02-22T21:34:49.864Z,12.93
2018-02-22T21:37:16.016Z,12.03
2018-02-22T21:39:42.298Z,11.73
2018-02-22T21:42:08.550Z,12.53
2018-02-22T21:44:35.530Z,13.33
2018-02-22T21:47:01.776Z,13.10
2018-02-22T21:49:28.031Z,13.00
2018-02-22T21:51:54.596Z,11.93
2018-02-22T21:54:21.533Z,12.27
2018-02-22T21:56:47.773Z,10.87
2018-02-22T21:59:13.984Z,11.87
2018-02-22T22:01:40.978Z,13.07
2018-02-22T22:04:07.218Z,10.50
2018-02-22T22:06:33.492Z,12.00
2018-02-22T22:09:00.513Z,11.83
2018-02-22T22:11:26.768Z,10.47
2018-02-22T22:13:52.977Z,10.63
2018-02-22T22:16:19.252Z,11.03
2018-02-22T22:18:45.459Z,10.73
2018-02-22T22:21:12.603Z,10.43
2018-02-22T22:23:39.573Z,11.00
2018-02-22T22:26:05.782Z,11.67
2018-02-22T22:28:32.739Z,10.63
2018-02-22T22:30:58.967Z,11.67
2018-02-22T22:33:25.203Z,12.33
2018-02-22T22:35:51.540Z,10.80
2018-02-22T22:38:17.743Z,11.30
2018-02-22T22:40:44.673Z,11.23
2018-02-22T22:43:11.618Z,11.73
2018-02-22T22:45:38.552Z,10.70
2018-02-22T22:48:04.949Z,11.60
2018-02-22T22:50:31.261Z,10.10
2018-02-22T22:52:57.724Z,10.40
2018-02-22T22:55:23.912Z,10.30
2018-02-22T22:57:50.221Z,10.77
2018-02-22T23:00:23.589Z,10.17
2018-02-22T23:02:49.889Z,10.90
2018-02-22T23:05:16.088Z,11.60
2018-02-22T23:07:42.321Z,10.30
2018-02-22T23:10:08.544Z,10.93
2018-02-22T23:12:34.805Z,11.37
2018-02-22T23:15:01.206Z,10.73
2018-02-22T23:17:27.515Z,10.60
2018-02-22T23:19:54.519Z,12.33
2018-02-22T23:22:20.726Z,11.10
2018-02-22T23:24:46.966Z,11.87
2018-02-22T23:27:13.181Z,10.87
2018-02-22T23:29:39.504Z,11.13
2018-02-22T23:32:05.729Z,10.67
2018-02-22T23:34:31.995Z,10.67
2018-02-22T23:36:58.193Z,10.30
2018-02-22T23:39:24.442Z,10.50
2018-02-22T23:44:53.712Z,10.47
2018-02-22T23:47:19.936Z,10.50
2018-02-22T23:49:46.937Z,11.40
2018-02-22T23:52:13.993Z,11.53
2018-02-22T23:54:42.309Z,11.30
2018-02-22T23:57:09.275Z,11.80
2018-02-22T23:59:35.544Z,11.63
